Terminal Aerodrome Forecast
Issued by NWS Louisville, KY

Home | Current Version | Previous Version | Text Only | Print | Product List | Glossary On
Versions: 1 2 3 4 5 6 7 8 9 10 11 12 13 14
000
FTUS43 KLMK 091725
TAFSDF
TAF
KSDF 091725Z 0918/1024 25012G18KT P6SM -SHSN SCT025 OVC035
      TEMPO 0918/0922 3SM -SHSN BKN025
     FM092200 29014G23KT P6SM VCSH BKN035
     FM100200 29008KT P6SM SCT035
     FM101400 23006KT P6SM SCT140=

USA.gov is the U.S. government's official web portal to all federal, state and local government web resources and services.